createdAt,value
2022-11-22T00:00:20.173Z,15.75
2022-11-22T00:05:13.796Z,15.32
2022-11-22T00:07:40.293Z,15.10
2022-11-22T00:10:08.284Z,16.08
2022-11-22T00:12:34.638Z,16.63
2022-11-22T00:15:01.061Z,15.73
2022-11-22T00:17:27.605Z,15.35
2022-11-22T00:19:53.911Z,15.25
2022-11-22T00:22:20.230Z,15.27
2022-11-22T00:24:46.894Z,17.40
2022-11-22T00:27:13.264Z,15.48
2022-11-22T00:29:39.568Z,16.05
2022-11-22T00:32:05.880Z,15.27
2022-11-22T00:34:32.190Z,14.65
2022-11-22T00:36:58.543Z,15.93
2022-11-22T00:39:24.852Z,16.65
2022-11-22T00:41:51.176Z,16.33
2022-11-22T00:44:17.555Z,15.00
2022-11-22T00:46:43.866Z,16.83
2022-11-22T00:49:10.181Z,15.93
2022-11-22T00:51:36.486Z,15.43
2022-11-22T00:54:02.794Z,16.23
2022-11-22T00:56:29.395Z,16.17
2022-11-22T00:58:55.682Z,17.10
2022-11-22T01:01:22.030Z,16.63
2022-11-22T01:03:48.460Z,18.08
2022-11-22T01:06:14.793Z,18.67
2022-11-22T01:08:41.183Z,16.83
2022-11-22T01:11:07.567Z,17.23
2022-11-22T01:13:34.253Z,17.95
2022-11-22T01:16:02.128Z,18.60
2022-11-22T01:18:28.722Z,16.95
2022-11-22T01:20:55.261Z,17.13
2022-11-22T01:23:21.648Z,16.23
2022-11-22T01:25:48.049Z,17.17
2022-11-22T01:28:14.448Z,16.88
2022-11-22T01:30:41.653Z,16.50
2022-11-22T01:33:08.953Z,14.73
2022-11-22T01:35:35.391Z,18.38
2022-11-22T01:38:01.863Z,15.93
2022-11-22T01:40:28.435Z,17.00
2022-11-22T01:42:57.212Z,17.00
2022-11-22T01:45:29.525Z,17.00
2022-11-22T01:48:01.191Z,16.20
2022-11-22T01:50:30.529Z,17.15
2022-11-22T01:53:02.845Z,15.93
2022-11-22T01:55:30.233Z,16.90
2022-11-22T01:57:57.911Z,16.30
2022-11-22T02:00:24.385Z,17.23
2022-11-22T02:02:53.756Z,17.33
2022-11-22T02:05:24.027Z,16.90
2022-11-22T02:08:09.256Z,17.05
2022-11-22T02:10:41.883Z,17.88
2022-11-22T02:13:10.163Z,16.80
2022-11-22T02:15:36.575Z,17.67
2022-11-22T02:18:03.357Z,15.45
2022-11-22T02:20:29.780Z,17.65
2022-11-22T02:23:03.735Z,17.90
2022-11-22T02:25:37.133Z,17.08
2022-11-22T02:28:04.748Z,17.55
2022-11-22T02:30:31.313Z,17.65
2022-11-22T02:32:57.753Z,15.93
2022-11-22T02:35:26.963Z,16.90
2022-11-22T02:38:02.891Z,16.95
2022-11-22T02:40:34.362Z,16.70
2022-11-22T02:48:16.989Z,16.00
2022-11-22T02:50:43.732Z,17.48
2022-11-22T02:53:11.781Z,17.80
2022-11-22T02:55:38.644Z,17.05
2022-11-22T02:58:06.031Z,17.90
2022-11-22T03:00:37.956Z,17.70
2022-11-22T03:03:04.771Z,17.45
2022-11-22T03:05:31.572Z,16.88
2022-11-22T03:07:57.960Z,18.58
2022-11-22T03:10:24.756Z,17.17
2022-11-22T03:12:51.861Z,16.70
2022-11-22T03:15:18.409Z,17.17
2022-11-22T03:17:44.771Z,17.75
2022-11-22T03:20:11.408Z,17.90
2022-11-22T03:22:37.870Z,17.83
2022-11-22T03:25:04.740Z,16.48
2022-11-22T03:27:31.377Z,18.88
2022-11-22T03:29:57.849Z,17.48
2022-11-22T03:32:24.415Z,17.63
2022-11-22T03:34:50.848Z,17.23
2022-11-22T03:37:17.284Z,18.15
2022-11-22T03:39:43.732Z,16.48
2022-11-22T03:42:10.108Z,18.13
2022-11-22T03:44:36.495Z,17.05
2022-11-22T03:47:02.886Z,17.92
2022-11-22T03:49:29.532Z,16.90
2022-11-22T03:51:56.198Z,18.13
2022-11-22T03:54:22.617Z,18.85
2022-11-22T03:56:48.991Z,16.73
2022-11-22T03:59:15.360Z,16.35
2022-11-22T04:01:41.801Z,18.52
2022-11-22T04:04:08.217Z,18.23
2022-11-22T04:06:34.633Z,16.65
2022-11-22T04:09:01.157Z,16.70
2022-11-22T04:11:27.601Z,18.30
2022-11-22T04:14:12.615Z,17.50
2022-11-22T04:16:39.035Z,18.92
2022-11-22T04:19:05.475Z,17.30
2022-11-22T04:21:34.505Z,16.65
2022-11-22T04:24:30.052Z,15.30
2022-11-22T04:26:57.393Z,16.23
2022-11-22T04:29:24.307Z,16.23
2022-11-22T04:32:10.385Z,17.60
2022-11-22T04:34:37.488Z,16.48
2022-11-22T04:37:04.724Z,15.88
2022-11-22T04:39:31.490Z,15.75
2022-11-22T04:42:16.552Z,17.30
2022-11-22T04:44:44.136Z,16.90
2022-11-22T04:47:12.889Z,17.42
2022-11-22T04:49:39.289Z,16.65
2022-11-22T04:52:24.885Z,16.13
2022-11-22T04:54:51.310Z,16.23
2022-11-22T04:57:17.668Z,16.85
2022-11-22T04:59:44.065Z,17.83
2022-11-22T05:02:10.492Z,17.73
2022-11-22T05:04:36.876Z,16.25
2022-11-22T05:07:03.404Z,18.05
2022-11-22T05:09:30.057Z,16.92
2022-11-22T05:11:56.691Z,17.02
2022-11-22T05:14:23.116Z,18.38
2022-11-22T05:16:49.505Z,16.98
2022-11-22T05:19:15.883Z,17.90
2022-11-22T05:21:42.267Z,17.83
2022-11-22T05:24:08.937Z,19.27
2022-11-22T05:26:36.777Z,18.23
2022-11-22T05:29:08.614Z,17.80
2022-11-22T05:31:36.552Z,19.08
2022-11-22T05:34:03.692Z,18.83
2022-11-22T05:36:32.887Z,19.17
2022-11-22T05:38:59.600Z,18.15
2022-11-22T05:41:26.239Z,19.75
2022-11-22T05:43:55.654Z,18.98
2022-11-22T05:46:26.103Z,18.08
2022-11-22T05:48:54.548Z,19.17
2022-11-22T05:51:23.593Z,18.27
2022-11-22T05:53:50.016Z,19.42
2022-11-22T05:56:21.348Z,19.63
2022-11-22T05:58:47.858Z,18.90
2022-11-22T06:01:23.261Z,20.85
2022-11-22T06:03:50.561Z,19.83
2022-11-22T06:06:17.291Z,19.35
2022-11-22T06:08:46.777Z,19.05
2022-11-22T06:11:17.347Z,20.77
2022-11-22T06:13:45.732Z,19.35
2022-11-22T06:16:12.800Z,18.98
2022-11-22T06:18:39.413Z,19.77
2022-11-22T06:21:08.500Z,20.10
2022-11-22T06:23:34.972Z,19.45
2022-11-22T06:26:05.272Z,19.60
2022-11-22T06:28:33.637Z,19.98
2022-11-22T06:31:19.875Z,19.80
2022-11-22T06:33:46.408Z,20.00
2022-11-22T06:36:21.197Z,21.20
2022-11-22T06:38:48.297Z,20.35
2022-11-22T06:41:20.318Z,22.10
2022-11-22T06:43:49.658Z,19.35
2022-11-22T06:46:18.022Z,21.73
2022-11-22T06:48:44.640Z,19.50
2022-11-22T06:51:17.195Z,20.05
2022-11-22T06:53:48.454Z,21.23
2022-11-22T06:56:20.939Z,20.42
2022-11-22T06:58:48.841Z,20.67
2022-11-22T07:01:23.609Z,22.35
2022-11-22T07:03:51.325Z,21.17
2022-11-22T07:06:19.352Z,21.05
2022-11-22T07:08:46.731Z,21.00
2022-11-22T07:11:15.793Z,19.48
2022-11-22T07:13:42.694Z,22.35
2022-11-22T07:16:12.159Z,20.20
2022-11-22T07:18:39.184Z,22.48
2022-11-22T07:21:14.231Z,21.70
2022-11-22T07:23:43.080Z,21.50
2022-11-22T07:26:13.351Z,22.98
2022-11-22T07:28:40.249Z,21.52
2022-11-22T07:31:08.576Z,21.65
2022-11-22T07:33:35.512Z,19.92
2022-11-22T07:36:07.148Z,20.67
2022-11-22T07:38:34.327Z,21.20
2022-11-22T07:41:01.167Z,20.52
2022-11-22T07:43:28.451Z,21.50
2022-11-22T07:45:59.120Z,21.85
2022-11-22T07:48:25.561Z,21.75
2022-11-22T07:50:52.031Z,21.40
2022-11-22T07:53:18.441Z,20.90
2022-11-22T07:55:44.916Z,22.15
2022-11-22T07:58:11.485Z,20.60
2022-11-22T08:00:38.105Z,22.00
2022-11-22T08:03:07.541Z,22.15
2022-11-22T08:05:34.074Z,22.08
2022-11-22T08:08:00.489Z,21.10
2022-11-22T08:10:26.882Z,22.23
2022-11-22T08:12:53.291Z,22.25
2022-11-22T08:15:19.700Z,22.10
2022-11-22T08:17:46.067Z,22.67
2022-11-22T08:20:13.214Z,20.30
2022-11-22T08:22:40.865Z,20.83
2022-11-22T08:25:12.437Z,22.65
2022-11-22T08:27:43.195Z,23.02
2022-11-22T08:30:11.145Z,21.70
2022-11-22T08:32:38.275Z,22.45
2022-11-22T08:35:05.173Z,23.10
2022-11-22T08:37:31.689Z,21.95
2022-11-22T08:39:58.080Z,22.80
2022-11-22T08:42:24.501Z,22.42
2022-11-22T08:44:50.945Z,24.00
2022-11-22T08:47:17.645Z,21.58
2022-11-22T08:49:44.213Z,25.35
2022-11-22T08:52:10.672Z,24.58
2022-11-22T08:54:38.119Z,24.05
2022-11-22T08:57:05.161Z,23.70
2022-11-22T08:59:31.858Z,24.02
2022-11-22T09:01:58.524Z,24.55
2022-11-22T09:04:25.013Z,24.27
2022-11-22T09:09:38.316Z,22.88
2022-11-22T09:12:05.301Z,24.48
2022-11-22T09:14:31.786Z,23.40
2022-11-22T09:16:58.270Z,23.90
2022-11-22T09:19:25.417Z,23.73
2022-11-22T09:21:51.808Z,23.92
2022-11-22T09:24:18.259Z,22.27
2022-11-22T09:26:44.699Z,23.00
2022-11-22T09:29:11.136Z,23.00
2022-11-22T09:31:37.664Z,24.13
2022-11-22T09:34:04.136Z,23.38
2022-11-22T09:36:30.972Z,22.92
2022-11-22T09:38:57.630Z,24.35
2022-11-22T09:41:26.783Z,22.83
2022-11-22T09:44:24.077Z,22.77
2022-11-22T09:46:50.436Z,23.02
2022-11-22T09:49:28.075Z,22.60
2022-11-22T09:52:05.405Z,21.85
2022-11-22T09:54:59.558Z,21.50
2022-11-22T09:57:32.726Z,23.08
2022-11-22T10:00:06.578Z,23.40
2022-11-22T10:03:00.233Z,22.75
2022-11-22T10:05:33.580Z,22.13
2022-11-22T10:08:13.029Z,22.58
2022-11-22T10:10:42.856Z,22.95
2022-11-22T10:13:15.296Z,23.15
2022-11-22T10:15:49.548Z,22.52
2022-11-22T10:18:48.238Z,22.27
2022-11-22T10:21:15.093Z,23.95
2022-11-22T10:23:43.033Z,23.23
2022-11-22T10:26:26.177Z,22.50
2022-11-22T10:29:14.212Z,23.10
2022-11-22T10:31:43.676Z,23.20
2022-11-22T10:34:28.680Z,22.58
2022-11-22T10:36:58.808Z,24.40
2022-11-22T10:39:49.711Z,23.88
2022-11-22T10:42:25.621Z,18.55
2022-11-22T10:44:55.080Z,23.45
2022-11-22T10:47:41.628Z,23.73
2022-11-22T10:50:52.252Z,25.27
2022-11-22T10:53:42.933Z,24.13
2022-11-22T10:57:08.026Z,27.60
2022-11-22T11:00:02.877Z,25.33
2022-11-22T11:02:47.825Z,26.90
2022-11-22T11:05:20.088Z,25.88
2022-11-22T11:07:56.569Z,25.65
2022-11-22T11:10:35.230Z,25.98
2022-11-22T11:13:15.112Z,28.20
2022-11-22T11:15:52.817Z,26.30
2022-11-22T11:18:32.661Z,25.17
2022-11-22T11:20:59.093Z,27.55
2022-11-22T11:23:25.504Z,25.33
2022-11-22T11:25:52.408Z,25.88
2022-11-22T11:28:20.577Z,25.65
2022-11-22T11:30:58.313Z,28.00
2022-11-22T11:33:33.467Z,26.33
2022-11-22T11:36:16.867Z,27.23
2022-11-22T11:38:43.220Z,27.75
2022-11-22T11:41:42.064Z,27.38
2022-11-22T11:44:36.018Z,26.88
2022-11-22T11:47:05.591Z,28.05
2022-11-22T11:49:34.382Z,27.30
2022-11-22T11:52:08.109Z,27.73
2022-11-22T11:54:43.948Z,26.48
2022-11-22T11:57:35.033Z,27.73
2022-11-22T12:00:04.741Z,28.23
2022-11-22T12:02:42.723Z,27.92
2022-11-22T12:05:15.082Z,26.63
2022-11-22T12:07:44.682Z,27.45
2022-11-22T12:10:30.052Z,27.60
2022-11-22T12:13:27.469Z,29.63
2022-11-22T12:15:59.904Z,31.88
2022-11-22T12:18:40.454Z,27.15
2022-11-22T12:21:19.332Z,28.70
2022-11-22T12:24:26.901Z,29.55
2022-11-22T12:26:50.324Z,26.75
2022-11-22T12:29:16.795Z,28.48
2022-11-22T12:32:27.534Z,29.52
2022-11-22T12:34:59.711Z,28.42
2022-11-22T12:37:40.761Z,28.83
2022-11-22T12:40:17.121Z,30.88
2022-11-22T12:42:55.966Z,30.40
2022-11-22T12:45:31.042Z,26.40
2022-11-22T12:48:00.785Z,27.35
2022-11-22T12:50:37.564Z,27.88
2022-11-22T12:53:17.505Z,27.05
2022-11-22T12:55:59.128Z,27.63
2022-11-22T13:01:38.987Z,26.83
2022-11-22T13:04:16.009Z,27.05
2022-11-22T13:06:50.288Z,29.10
2022-11-22T13:09:24.424Z,29.63
2022-11-22T13:12:10.277Z,30.15
2022-11-22T13:14:42.600Z,30.63
2022-11-22T13:17:11.061Z,28.27
2022-11-22T13:19:49.112Z,27.67
2022-11-22T13:22:29.481Z,27.35
2022-11-22T13:25:05.242Z,28.77
2022-11-22T13:27:36.280Z,27.15
2022-11-22T13:30:03.719Z,28.05
2022-11-22T13:32:32.587Z,28.98
2022-11-22T13:35:11.512Z,28.88
2022-11-22T13:37:42.505Z,28.10
2022-11-22T13:40:29.932Z,29.85
2022-11-22T13:43:19.589Z,28.48
2022-11-22T13:45:52.041Z,28.17
2022-11-22T13:48:40.229Z,30.30
2022-11-22T13:51:11.821Z,29.58
2022-11-22T13:53:47.851Z,29.63
2022-11-22T13:56:16.962Z,31.00
2022-11-22T13:59:13.677Z,28.52
2022-11-22T14:01:40.156Z,28.92
2022-11-22T14:04:15.808Z,28.35
2022-11-22T14:07:21.577Z,29.00
2022-11-22T14:09:50.750Z,27.77
2022-11-22T14:12:30.301Z,29.10
2022-11-22T14:15:15.128Z,29.65
2022-11-22T14:18:06.042Z,28.58
2022-11-22T14:21:10.269Z,28.97
2022-11-22T14:23:39.674Z,28.77
2022-11-22T14:26:19.385Z,29.73
2022-11-22T14:29:04.134Z,28.05
2022-11-22T14:31:34.225Z,28.45
2022-11-22T14:34:19.159Z,27.70
2022-11-22T14:37:06.449Z,28.98
2022-11-22T14:39:45.167Z,28.98
2022-11-22T14:42:40.984Z,27.73
2022-11-22T14:45:10.515Z,28.77
2022-11-22T14:47:40.599Z,28.23
2022-11-22T14:50:18.630Z,27.23
2022-11-22T14:52:47.917Z,27.75
2022-11-22T14:55:18.935Z,27.63
2022-11-22T14:57:48.684Z,28.23
2022-11-22T15:00:15.297Z,30.88
2022-11-22T15:03:23.810Z,29.67
2022-11-22T15:09:12.287Z,27.25
2022-11-22T15:09:23.226Z,29.02
2022-11-22T15:11:53.495Z,29.88
2022-11-22T15:14:47.391Z,27.75
2022-11-22T15:57:32.213Z,29.27
2022-11-22T16:02:29.887Z,27.52
2022-11-22T16:06:09.702Z,27.38
2022-11-22T16:07:49.046Z,28.88
2022-11-22T16:10:32.960Z,28.60
2022-11-22T16:13:19.800Z,29.35
2022-11-22T16:16:06.341Z,28.75
2022-11-22T16:18:32.972Z,28.70
2022-11-22T16:21:11.502Z,28.15
2022-11-22T16:23:39.715Z,29.30
2022-11-22T16:26:19.084Z,28.63
2022-11-22T16:28:54.720Z,27.70
2022-11-22T16:31:24.013Z,29.50
2022-11-22T16:33:51.734Z,30.90
2022-11-22T16:36:20.086Z,29.95
2022-11-22T16:38:46.989Z,30.05
2022-11-22T16:41:22.122Z,30.15
2022-11-22T16:43:51.996Z,30.75
2022-11-22T16:46:19.140Z,29.45
2022-11-22T16:48:45.871Z,29.70
2022-11-22T16:51:15.132Z,30.15
2022-11-22T16:53:46.997Z,29.60
2022-11-22T16:56:24.647Z,29.33
2022-11-22T16:58:52.681Z,29.38
2022-11-22T17:01:21.839Z,28.92
2022-11-22T17:03:52.004Z,29.83
2022-11-22T17:06:24.269Z,30.27
2022-11-22T17:08:52.942Z,29.38
2022-11-22T17:11:21.657Z,33.08
2022-11-22T17:13:48.217Z,30.30
2022-11-22T17:16:17.780Z,33.50
2022-11-22T17:18:45.766Z,31.38
2022-11-22T17:21:24.066Z,31.27
2022-11-22T17:23:51.251Z,30.25
2022-11-22T17:26:17.716Z,28.83
2022-11-22T17:28:44.852Z,31.77
2022-11-22T17:31:16.902Z,28.65
2022-11-22T17:33:43.583Z,29.35
2022-11-22T17:36:39.013Z,31.48
2022-11-22T17:39:08.124Z,30.13
2022-11-22T17:41:35.297Z,29.63
2022-11-22T17:44:02.492Z,31.90
2022-11-22T17:46:30.521Z,28.92
2022-11-22T17:48:59.561Z,27.98
2022-11-22T17:51:27.747Z,30.30
2022-11-22T17:53:54.809Z,31.38
2022-11-22T17:56:21.540Z,30.23
2022-11-22T17:58:48.708Z,32.85
2022-11-22T18:01:18.104Z,30.52
2022-11-22T18:03:46.111Z,31.33
2022-11-22T18:06:14.077Z,30.95
2022-11-22T18:08:46.410Z,31.95
2022-11-22T18:11:13.863Z,30.45
2022-11-22T18:13:40.356Z,32.25
2022-11-22T18:16:12.065Z,30.52
2022-11-22T18:21:26.564Z,31.30
2022-11-22T18:23:53.252Z,33.15
2022-11-22T18:31:54.172Z,31.83
2022-11-22T18:34:24.749Z,29.75
2022-11-22T18:37:07.524Z,31.23
2022-11-22T18:39:37.798Z,31.52
2022-11-22T18:42:12.771Z,32.15
2022-11-22T18:44:39.670Z,32.13
2022-11-22T18:47:06.384Z,30.55
2022-11-22T18:49:33.282Z,31.33
2022-11-22T18:52:00.422Z,30.20
2022-11-22T18:54:26.930Z,30.33
2022-11-22T18:56:53.341Z,34.50
2022-11-22T18:59:19.990Z,31.30
2022-11-22T19:01:46.616Z,32.00
2022-11-22T19:04:16.667Z,30.98
2022-11-22T19:06:44.407Z,32.05
2022-11-22T19:09:11.328Z,31.67
2022-11-22T19:11:38.125Z,31.27
2022-11-22T19:14:05.143Z,32.15
2022-11-22T19:16:31.753Z,33.15
2022-11-22T19:18:59.552Z,32.45
2022-11-22T19:21:28.194Z,32.63
2022-11-22T19:23:56.412Z,32.60
2022-11-22T19:26:25.622Z,32.33
2022-11-22T19:28:56.440Z,31.60
2022-11-22T19:31:28.897Z,32.15
2022-11-22T19:33:55.879Z,31.67
2022-11-22T19:36:31.865Z,33.67
2022-11-22T19:38:59.349Z,30.52
2022-11-22T19:41:26.062Z,32.72
2022-11-22T19:43:52.578Z,33.67
2022-11-22T19:46:22.471Z,31.33
2022-11-22T19:48:52.972Z,33.88
2022-11-22T19:51:20.164Z,32.00
2022-11-22T19:53:46.696Z,29.83
2022-11-22T19:56:15.874Z,32.95
2022-11-22T19:58:43.500Z,30.63
2022-11-22T20:01:13.056Z,32.58
2022-11-22T20:03:41.425Z,32.08
2022-11-22T20:06:09.959Z,31.15
2022-11-22T20:08:37.396Z,30.70
2022-11-22T20:11:06.176Z,31.75
2022-11-22T20:13:37.951Z,31.15
2022-11-22T20:16:08.619Z,34.63
2022-11-22T20:18:35.109Z,34.50
2022-11-22T20:21:02.566Z,30.88
2022-11-22T20:23:30.322Z,31.33
2022-11-22T20:26:11.394Z,31.13
2022-11-22T20:28:39.248Z,34.40
2022-11-22T20:31:24.290Z,30.08
2022-11-22T20:33:52.770Z,33.75
2022-11-22T20:36:22.175Z,28.60
2022-11-22T20:38:49.822Z,30.20
2022-11-22T20:41:18.283Z,31.08
2022-11-22T20:43:45.273Z,30.55
2022-11-22T20:46:14.689Z,31.42
2022-11-22T20:48:42.743Z,30.40
2022-11-22T20:51:12.442Z,32.80
2022-11-22T20:53:39.170Z,31.73
2022-11-22T20:56:05.992Z,31.65
2022-11-22T20:58:32.777Z,31.85
2022-11-22T21:01:04.250Z,30.02
2022-11-22T21:05:57.224Z,30.33
2022-11-22T21:08:23.724Z,36.45
2022-11-22T21:10:50.101Z,32.28
2022-11-22T21:13:16.972Z,31.60
2022-11-22T21:15:43.710Z,34.30
2022-11-22T21:18:25.176Z,33.08
2022-11-22T21:20:52.336Z,32.45
2022-11-22T21:23:18.821Z,32.15
2022-11-22T21:25:46.546Z,32.08
2022-11-22T21:28:13.006Z,30.73
2022-11-22T21:30:39.475Z,33.00
2022-11-22T21:33:05.969Z,31.10
2022-11-22T21:35:32.397Z,32.45
2022-11-22T21:37:58.805Z,33.70
2022-11-22T21:40:25.185Z,31.17
2022-11-22T21:42:51.663Z,31.30
2022-11-22T21:45:18.081Z,32.28
2022-11-22T21:47:47.237Z,32.22
2022-11-22T21:50:15.217Z,32.58
2022-11-22T21:52:42.247Z,32.40
2022-11-22T21:55:09.598Z,31.23
2022-11-22T21:57:36.010Z,29.83
2022-11-22T22:00:03.838Z,31.42
2022-11-22T22:02:32.841Z,33.95
2022-11-22T22:04:59.349Z,31.85
2022-11-22T22:07:50.660Z,32.90
2022-11-22T22:10:13.488Z,32.80
2022-11-22T22:12:40.784Z,33.05
2022-11-22T22:15:12.531Z,33.20
2022-11-22T22:17:39.238Z,30.33
2022-11-22T22:20:06.441Z,31.70
2022-11-22T22:22:36.768Z,33.15
2022-11-22T22:25:05.060Z,31.25
2022-11-22T22:27:32.939Z,32.92
2022-11-22T22:29:59.721Z,33.72
2022-11-22T22:32:27.476Z,31.05
2022-11-22T22:34:54.444Z,32.35
2022-11-22T22:37:20.910Z,31.65
2022-11-22T22:39:47.344Z,30.88
2022-11-22T22:42:14.159Z,28.95
2022-11-22T22:44:40.577Z,30.95
2022-11-22T22:47:07.083Z,30.30
2022-11-22T22:49:33.928Z,31.45
2022-11-22T22:52:00.452Z,30.75
2022-11-22T22:54:26.874Z,30.30
2022-11-22T22:56:53.245Z,31.98
2022-11-22T22:59:19.681Z,32.95
2022-11-22T23:01:46.220Z,29.98
2022-11-22T23:04:12.663Z,31.33
2022-11-22T23:06:39.754Z,30.02
2022-11-22T23:09:09.445Z,30.20
2022-11-22T23:11:55.427Z,30.98
2022-11-22T23:14:24.885Z,31.17
2022-11-22T23:16:57.035Z,30.73
2022-11-22T23:19:24.804Z,31.02
2022-11-22T23:21:51.756Z,31.00
2022-11-22T23:24:18.264Z,30.23
2022-11-22T23:26:44.717Z,31.38
2022-11-22T23:29:11.289Z,30.23
2022-11-22T23:31:37.820Z,30.58
2022-11-22T23:34:04.472Z,31.92
2022-11-22T23:36:32.925Z,30.35
2022-11-22T23:39:02.774Z,31.95
2022-11-22T23:41:30.044Z,30.25
2022-11-22T23:43:57.147Z,30.50
2022-11-22T23:46:27.276Z,30.05
2022-11-22T23:48:56.028Z,30.63
2022-11-22T23:51:23.164Z,31.55
2022-11-22T23:53:54.304Z,28.52
2022-11-22T23:56:22.081Z,31.70
2022-11-22T23:58:49.171Z,31.17
